CheckWX is a tool to help pilots better visualize weather data.  It is not intended as a substitute for an official pre-flight weather briefing.

21:05:47 UTC

KOMN METAR
Ormond Beach Municipal Airport
Ormond Beach, Florida, USA
Current

16 mins ago

KOMN 232050Z 13009G15KT 7SM BKN035 26/24 A3006
Observed
Feb-23 @ 20:50 UTC
Wind
  • 130° at 9 KTS
  • Gusting to 15 KTS
Visibility
7 SM
Flight Rules
VFR
Cloud Levels
  • Broken at 3,500' AGL
Temperature
26°C / 79°F
Dewpoint
24°C / 75°F
Humidity
89%
Altimeter
30.06" Hg
Pressure
1017.92 hPa
Previous

1 hour ago

KOMN 231950Z 11007KT 7SM BKN035 28/21 A3007
Observed
Feb-23 @ 19:50 UTC
Wind
  • 110° at 7 KTS
Visibility
7 SM
Flight Rules
VFR
Cloud Levels
  • Broken at 3,500' AGL
Temperature
28°C / 82°F
Dewpoint
21°C / 70°F
Humidity
66%
Altimeter
30.07" Hg
Pressure
1018.32 hPa
Previous

2 hours ago

KOMN 231850Z 15007KT 7SM BKN035 30/20 A3009
Observed
Feb-23 @ 18:50 UTC
Wind
  • 150° at 7 KTS
Visibility
7 SM
Flight Rules
VFR
Cloud Levels
  • Broken at 3,500' AGL
Temperature
30°C / 86°F
Dewpoint
20°C / 68°F
Humidity
55%
Altimeter
30.09" Hg
Pressure
1018.92 hPa